sensor_id;sensor_type;location;lat;lon;timestamp;P1;durP1;ratioP1;P2;durP2;ratioP2
17441;SDS011;8838;50.144;8.176;2023-01-30T00:01:04;35.30;;;17.23;;
17441;SDS011;8838;50.144;8.176;2023-01-30T00:03:33;30.77;;;16.37;;
17441;SDS011;8838;50.144;8.176;2023-01-30T00:06:01;34.20;;;16.47;;
17441;SDS011;8838;50.144;8.176;2023-01-30T00:08:28;34.63;;;17.30;;
17441;SDS011;8838;50.144;8.176;2023-01-30T00:10:55;37.27;;;17.40;;
17441;SDS011;8838;50.144;8.176;2023-01-30T00:13:21;34.53;;;16.97;;
17441;SDS011;8838;50.144;8.176;2023-01-30T00:15:48;34.77;;;17.00;;
17441;SDS011;8838;50.144;8.176;2023-01-30T00:18:15;35.10;;;16.60;;
17441;SDS011;8838;50.144;8.176;2023-01-30T00:20:42;33.67;;;16.37;;
17441;SDS011;8838;50.144;8.176;2023-01-30T00:23:11;32.00;;;15.83;;
17441;SDS011;8838;50.144;8.176;2023-01-30T00:25:38;30.27;;;15.57;;
17441;SDS011;8838;50.144;8.176;2023-01-30T00:28:05;28.40;;;14.97;;
17441;SDS011;8838;50.144;8.176;2023-01-30T00:30:32;29.10;;;14.80;;
17441;SDS011;8838;50.144;8.176;2023-01-30T00:32:58;31.03;;;15.73;;
17441;SDS011;8838;50.144;8.176;2023-01-30T00:35:25;29.63;;;14.93;;
17441;SDS011;8838;50.144;8.176;2023-01-30T00:37:54;29.47;;;15.33;;
17441;SDS011;8838;50.144;8.176;2023-01-30T00:40:23;31.73;;;15.50;;
17441;SDS011;8838;50.144;8.176;2023-01-30T00:42:51;31.77;;;16.23;;
17441;SDS011;8838;50.144;8.176;2023-01-30T00:45:35;31.80;;;16.63;;
17441;SDS011;8838;50.144;8.176;2023-01-30T00:48:21;30.90;;;16.10;;
17441;SDS011;8838;50.144;8.176;2023-01-30T00:50:48;31.17;;;15.43;;
17441;SDS011;8838;50.144;8.176;2023-01-30T00:53:15;32.37;;;15.57;;
17441;SDS011;8838;50.144;8.176;2023-01-30T00:55:43;31.73;;;15.93;;
17441;SDS011;8838;50.144;8.176;2023-01-30T00:58:10;29.87;;;16.27;;
17441;SDS011;8838;50.144;8.176;2023-01-30T01:00:38;33.73;;;16.07;;
17441;SDS011;8838;50.144;8.176;2023-01-30T01:03:04;30.03;;;15.50;;
17441;SDS011;8838;50.144;8.176;2023-01-30T01:05:32;30.77;;;15.47;;
17441;SDS011;8838;50.144;8.176;2023-01-30T01:07:59;29.73;;;15.23;;
17441;SDS011;8838;50.144;8.176;2023-01-30T01:10:26;27.90;;;14.93;;
17441;SDS011;8838;50.144;8.176;2023-01-30T01:12:54;29.23;;;15.17;;
17441;SDS011;8838;50.144;8.176;2023-01-30T01:15:21;29.67;;;15.10;;
17441;SDS011;8838;50.144;8.176;2023-01-30T01:17:50;28.73;;;14.77;;
17441;SDS011;8838;50.144;8.176;2023-01-30T01:20:18;28.37;;;14.20;;
17441;SDS011;8838;50.144;8.176;2023-01-30T01:22:45;29.00;;;15.03;;
17441;SDS011;8838;50.144;8.176;2023-01-30T01:25:14;26.87;;;14.63;;
17441;SDS011;8838;50.144;8.176;2023-01-30T01:27:43;27.53;;;14.50;;
17441;SDS011;8838;50.144;8.176;2023-01-30T01:30:12;28.27;;;15.00;;
17441;SDS011;8838;50.144;8.176;2023-01-30T01:32:39;27.20;;;14.53;;
17441;SDS011;8838;50.144;8.176;2023-01-30T01:35:07;26.70;;;14.77;;
17441;SDS011;8838;50.144;8.176;2023-01-30T01:37:34;25.13;;;13.63;;
17441;SDS011;8838;50.144;8.176;2023-01-30T01:40:01;26.73;;;13.50;;
17441;SDS011;8838;50.144;8.176;2023-01-30T01:42:45;25.10;;;13.97;;
17441;SDS011;8838;50.144;8.176;2023-01-30T01:45:14;26.50;;;13.57;;
17441;SDS011;8838;50.144;8.176;2023-01-30T01:47:45;27.97;;;14.20;;
17441;SDS011;8838;50.144;8.176;2023-01-30T01:50:15;23.63;;;13.67;;
17441;SDS011;8838;50.144;8.176;2023-01-30T01:52:46;24.40;;;13.27;;
17441;SDS011;8838;50.144;8.176;2023-01-30T01:55:17;26.53;;;13.83;;
17441;SDS011;8838;50.144;8.176;2023-01-30T01:57:46;25.43;;;12.90;;
17441;SDS011;8838;50.144;8.176;2023-01-30T02:00:18;25.90;;;13.40;;
17441;SDS011;8838;50.144;8.176;2023-01-30T02:02:48;26.50;;;14.33;;
17441;SDS011;8838;50.144;8.176;2023-01-30T02:05:19;22.77;;;12.37;;
17441;SDS011;8838;50.144;8.176;2023-01-30T02:07:48;21.13;;;12.10;;
17441;SDS011;8838;50.144;8.176;2023-01-30T02:10:18;24.73;;;12.70;;
17441;SDS011;8838;50.144;8.176;2023-01-30T02:12:48;25.00;;;12.80;;
17441;SDS011;8838;50.144;8.176;2023-01-30T02:15:18;26.13;;;13.93;;
17441;SDS011;8838;50.144;8.176;2023-01-30T02:17:45;24.83;;;12.77;;
17441;SDS011;8838;50.144;8.176;2023-01-30T02:20:15;25.40;;;12.77;;
17441;SDS011;8838;50.144;8.176;2023-01-30T02:23:00;25.07;;;12.63;;
17441;SDS011;8838;50.144;8.176;2023-01-30T02:26:00;23.30;;;12.80;;
17441;SDS011;8838;50.144;8.176;2023-01-30T02:29:06;26.47;;;13.80;;
17441;SDS011;8838;50.144;8.176;2023-01-30T02:32:02;24.67;;;13.40;;
17441;SDS011;8838;50.144;8.176;2023-01-30T02:34:35;25.67;;;13.20;;
17441;SDS011;8838;50.144;8.176;2023-01-30T02:37:13;24.37;;;12.43;;
17441;SDS011;8838;50.144;8.176;2023-01-30T02:39:51;24.70;;;13.17;;
17441;SDS011;8838;50.144;8.176;2023-01-30T02:42:29;24.97;;;13.97;;
17441;SDS011;8838;50.144;8.176;2023-01-30T02:45:04;27.73;;;13.97;;
17441;SDS011;8838;50.144;8.176;2023-01-30T02:47:37;27.63;;;14.30;;
17441;SDS011;8838;50.144;8.176;2023-01-30T02:50:09;26.10;;;14.07;;
17441;SDS011;8838;50.144;8.176;2023-01-30T02:52:39;24.20;;;13.43;;
17441;SDS011;8838;50.144;8.176;2023-01-30T02:55:08;24.83;;;13.83;;
17441;SDS011;8838;50.144;8.176;2023-01-30T02:57:42;29.83;;;14.17;;
17441;SDS011;8838;50.144;8.176;2023-01-30T03:00:09;27.10;;;13.93;;
17441;SDS011;8838;50.144;8.176;2023-01-30T03:02:47;25.00;;;13.43;;
17441;SDS011;8838;50.144;8.176;2023-01-30T03:05:35;23.43;;;13.00;;
17441;SDS011;8838;50.144;8.176;2023-01-30T03:08:13;28.80;;;14.87;;
17441;SDS011;8838;50.144;8.176;2023-01-30T03:10:51;26.03;;;13.57;;
17441;SDS011;8838;50.144;8.176;2023-01-30T03:13:25;24.13;;;13.23;;
17441;SDS011;8838;50.144;8.176;2023-01-30T03:16:01;28.67;;;14.70;;
17441;SDS011;8838;50.144;8.176;2023-01-30T03:18:33;26.73;;;13.90;;
17441;SDS011;8838;50.144;8.176;2023-01-30T03:21:02;26.90;;;13.53;;
17441;SDS011;8838;50.144;8.176;2023-01-30T03:23:30;24.90;;;13.83;;
17441;SDS011;8838;50.144;8.176;2023-01-30T03:25:57;25.97;;;14.63;;
17441;SDS011;8838;50.144;8.176;2023-01-30T03:28:25;26.23;;;13.63;;
17441;SDS011;8838;50.144;8.176;2023-01-30T03:30:53;26.70;;;14.60;;
17441;SDS011;8838;50.144;8.176;2023-01-30T03:33:19;27.87;;;14.57;;
17441;SDS011;8838;50.144;8.176;2023-01-30T03:35:48;24.57;;;13.47;;
17441;SDS011;8838;50.144;8.176;2023-01-30T03:38:14;25.43;;;14.33;;
17441;SDS011;8838;50.144;8.176;2023-01-30T03:40:42;27.43;;;14.47;;
17441;SDS011;8838;50.144;8.176;2023-01-30T03:43:09;25.27;;;14.20;;
17441;SDS011;8838;50.144;8.176;2023-01-30T03:45:36;26.53;;;14.33;;
17441;SDS011;8838;50.144;8.176;2023-01-30T03:48:03;27.43;;;14.13;;
17441;SDS011;8838;50.144;8.176;2023-01-30T03:50:30;23.50;;;13.33;;
17441;SDS011;8838;50.144;8.176;2023-01-30T03:52:58;25.13;;;14.27;;
17441;SDS011;8838;50.144;8.176;2023-01-30T03:55:25;24.47;;;13.63;;
17441;SDS011;8838;50.144;8.176;2023-01-30T03:57:53;26.10;;;13.80;;
17441;SDS011;8838;50.144;8.176;2023-01-30T04:00:21;24.43;;;13.03;;
17441;SDS011;8838;50.144;8.176;2023-01-30T04:02:48;22.97;;;12.73;;
17441;SDS011;8838;50.144;8.176;2023-01-30T04:05:15;23.50;;;13.63;;
17441;SDS011;8838;50.144;8.176;2023-01-30T04:07:41;23.27;;;13.03;;
17441;SDS011;8838;50.144;8.176;2023-01-30T04:10:10;25.63;;;14.03;;
17441;SDS011;8838;50.144;8.176;2023-01-30T04:12:39;23.50;;;13.03;;
17441;SDS011;8838;50.144;8.176;2023-01-30T04:15:06;25.13;;;13.50;;
17441;SDS011;8838;50.144;8.176;2023-01-30T04:17:34;23.17;;;13.13;;
17441;SDS011;8838;50.144;8.176;2023-01-30T04:20:00;25.40;;;14.33;;
17441;SDS011;8838;50.144;8.176;2023-01-30T04:22:27;25.93;;;13.67;;
17441;SDS011;8838;50.144;8.176;2023-01-30T04:24:54;25.57;;;13.47;;
17441;SDS011;8838;50.144;8.176;2023-01-30T04:27:22;23.53;;;13.53;;
17441;SDS011;8838;50.144;8.176;2023-01-30T04:29:49;23.77;;;13.00;;
17441;SDS011;8838;50.144;8.176;2023-01-30T04:32:16;23.83;;;12.87;;
17441;SDS011;8838;50.144;8.176;2023-01-30T04:34:43;24.67;;;13.23;;
17441;SDS011;8838;50.144;8.176;2023-01-30T04:37:09;25.43;;;13.03;;
17441;SDS011;8838;50.144;8.176;2023-01-30T04:39:36;23.27;;;13.47;;
17441;SDS011;8838;50.144;8.176;2023-01-30T04:42:03;23.83;;;12.47;;
17441;SDS011;8838;50.144;8.176;2023-01-30T04:44:31;24.80;;;13.33;;
17441;SDS011;8838;50.144;8.176;2023-01-30T04:46:58;22.63;;;13.13;;
17441;SDS011;8838;50.144;8.176;2023-01-30T04:49:25;24.40;;;13.60;;
17441;SDS011;8838;50.144;8.176;2023-01-30T04:51:52;24.13;;;12.97;;
17441;SDS011;8838;50.144;8.176;2023-01-30T04:54:19;22.87;;;12.57;;
17441;SDS011;8838;50.144;8.176;2023-01-30T04:56:46;24.17;;;13.20;;
17441;SDS011;8838;50.144;8.176;2023-01-30T04:59:12;23.30;;;12.40;;
17441;SDS011;8838;50.144;8.176;2023-01-30T05:01:41;22.33;;;12.87;;
17441;SDS011;8838;50.144;8.176;2023-01-30T05:04:08;25.17;;;13.40;;
17441;SDS011;8838;50.144;8.176;2023-01-30T05:06:35;22.27;;;12.00;;
17441;SDS011;8838;50.144;8.176;2023-01-30T05:09:02;22.87;;;12.87;;
17441;SDS011;8838;50.144;8.176;2023-01-30T05:11:30;24.30;;;13.37;;
17441;SDS011;8838;50.144;8.176;2023-01-30T05:13:57;22.63;;;12.30;;
17441;SDS011;8838;50.144;8.176;2023-01-30T05:16:24;25.47;;;13.40;;
17441;SDS011;8838;50.144;8.176;2023-01-30T05:18:53;20.73;;;12.47;;
17441;SDS011;8838;50.144;8.176;2023-01-30T05:21:20;23.17;;;12.23;;
17441;SDS011;8838;50.144;8.176;2023-01-30T05:23:50;21.30;;;11.63;;
17441;SDS011;8838;50.144;8.176;2023-01-30T05:26:17;21.93;;;12.27;;
17441;SDS011;8838;50.144;8.176;2023-01-30T05:28:49;20.30;;;11.83;;
17441;SDS011;8838;50.144;8.176;2023-01-30T05:31:17;20.53;;;11.27;;
17441;SDS011;8838;50.144;8.176;2023-01-30T05:33:44;18.83;;;10.87;;
17441;SDS011;8838;50.144;8.176;2023-01-30T05:36:14;22.77;;;12.13;;
17441;SDS011;8838;50.144;8.176;2023-01-30T05:38:42;21.53;;;11.50;;
17441;SDS011;8838;50.144;8.176;2023-01-30T05:41:11;20.40;;;11.77;;
17441;SDS011;8838;50.144;8.176;2023-01-30T05:43:39;19.73;;;11.23;;
17441;SDS011;8838;50.144;8.176;2023-01-30T05:46:06;21.70;;;11.77;;
17441;SDS011;8838;50.144;8.176;2023-01-30T05:48:35;19.63;;;11.40;;
17441;SDS011;8838;50.144;8.176;2023-01-30T05:51:01;19.47;;;11.30;;
17441;SDS011;8838;50.144;8.176;2023-01-30T05:53:30;19.53;;;10.50;;
17441;SDS011;8838;50.144;8.176;2023-01-30T05:55:59;17.77;;;10.57;;
17441;SDS011;8838;50.144;8.176;2023-01-30T05:58:27;18.17;;;10.60;;
17441;SDS011;8838;50.144;8.176;2023-01-30T06:00:58;18.97;;;10.57;;
17441;SDS011;8838;50.144;8.176;2023-01-30T06:03:26;20.63;;;10.80;;
17441;SDS011;8838;50.144;8.176;2023-01-30T06:05:53;16.20;;;10.03;;
17441;SDS011;8838;50.144;8.176;2023-01-30T06:08:20;15.57;;;9.43;;
17441;SDS011;8838;50.144;8.176;2023-01-30T06:10:48;18.03;;;9.83;;
17441;SDS011;8838;50.144;8.176;2023-01-30T06:13:15;17.63;;;10.13;;
17441;SDS011;8838;50.144;8.176;2023-01-30T06:15:42;15.03;;;9.27;;
17441;SDS011;8838;50.144;8.176;2023-01-30T06:18:08;15.03;;;9.00;;
17441;SDS011;8838;50.144;8.176;2023-01-30T06:20:35;14.27;;;8.90;;
17441;SDS011;8838;50.144;8.176;2023-01-30T06:23:02;14.67;;;8.73;;
17441;SDS011;8838;50.144;8.176;2023-01-30T06:25:29;14.67;;;8.90;;
17441;SDS011;8838;50.144;8.176;2023-01-30T06:27:57;12.80;;;8.37;;
17441;SDS011;8838;50.144;8.176;2023-01-30T06:30:24;15.40;;;9.00;;
17441;SDS011;8838;50.144;8.176;2023-01-30T06:32:50;14.00;;;8.27;;
17441;SDS011;8838;50.144;8.176;2023-01-30T06:35:17;14.13;;;8.43;;
17441;SDS011;8838;50.144;8.176;2023-01-30T06:37:44;12.00;;;7.60;;
17441;SDS011;8838;50.144;8.176;2023-01-30T06:40:11;13.53;;;7.90;;
17441;SDS011;8838;50.144;8.176;2023-01-30T06:42:42;14.07;;;8.23;;
17441;SDS011;8838;50.144;8.176;2023-01-30T06:45:11;13.27;;;8.57;;
17441;SDS011;8838;50.144;8.176;2023-01-30T06:47:45;12.83;;;7.83;;
17441;SDS011;8838;50.144;8.176;2023-01-30T06:50:13;13.63;;;8.10;;
17441;SDS011;8838;50.144;8.176;2023-01-30T06:52:41;12.77;;;7.60;;
17441;SDS011;8838;50.144;8.176;2023-01-30T06:55:09;12.20;;;7.27;;
17441;SDS011;8838;50.144;8.176;2023-01-30T06:57:38;12.53;;;7.97;;
17441;SDS011;8838;50.144;8.176;2023-01-30T07:00:06;11.47;;;7.80;;
17441;SDS011;8838;50.144;8.176;2023-01-30T07:02:37;12.80;;;8.00;;
17441;SDS011;8838;50.144;8.176;2023-01-30T07:05:06;13.23;;;8.07;;
17441;SDS011;8838;50.144;8.176;2023-01-30T07:07:34;12.37;;;7.70;;
17441;SDS011;8838;50.144;8.176;2023-01-30T07:10:01;13.27;;;7.53;;
17441;SDS011;8838;50.144;8.176;2023-01-30T07:12:29;13.90;;;7.53;;
17441;SDS011;8838;50.144;8.176;2023-01-30T07:14:56;12.10;;;7.47;;
17441;SDS011;8838;50.144;8.176;2023-01-30T07:17:22;11.30;;;7.33;;
17441;SDS011;8838;50.144;8.176;2023-01-30T07:19:51;11.70;;;7.60;;
17441;SDS011;8838;50.144;8.176;2023-01-30T07:22:17;11.53;;;7.57;;
17441;SDS011;8838;50.144;8.176;2023-01-30T07:24:44;11.77;;;7.33;;
17441;SDS011;8838;50.144;8.176;2023-01-30T07:27:11;11.60;;;7.20;;
17441;SDS011;8838;50.144;8.176;2023-01-30T07:29:38;12.17;;;7.57;;
17441;SDS011;8838;50.144;8.176;2023-01-30T07:32:06;10.83;;;7.17;;
17441;SDS011;8838;50.144;8.176;2023-01-30T07:34:35;10.67;;;6.73;;
17441;SDS011;8838;50.144;8.176;2023-01-30T07:37:05;11.13;;;7.27;;
17441;SDS011;8838;50.144;8.176;2023-01-30T07:39:32;10.80;;;6.97;;
17441;SDS011;8838;50.144;8.176;2023-01-30T07:41:59;9.47;;;6.10;;
17441;SDS011;8838;50.144;8.176;2023-01-30T07:44:26;11.87;;;6.60;;
17441;SDS011;8838;50.144;8.176;2023-01-30T07:46:53;12.20;;;7.20;;
17441;SDS011;8838;50.144;8.176;2023-01-30T07:49:20;10.03;;;6.30;;
17441;SDS011;8838;50.144;8.176;2023-01-30T07:51:47;10.50;;;6.43;;
17441;SDS011;8838;50.144;8.176;2023-01-30T07:54:15;10.13;;;6.23;;
17441;SDS011;8838;50.144;8.176;2023-01-30T07:56:42;10.80;;;6.30;;
17441;SDS011;8838;50.144;8.176;2023-01-30T07:59:09;9.27;;;6.07;;
17441;SDS011;8838;50.144;8.176;2023-01-30T08:01:36;10.50;;;6.40;;
17441;SDS011;8838;50.144;8.176;2023-01-30T08:04:03;10.63;;;6.40;;
17441;SDS011;8838;50.144;8.176;2023-01-30T08:06:30;12.13;;;6.20;;
17441;SDS011;8838;50.144;8.176;2023-01-30T08:09:01;8.27;;;5.37;;
17441;SDS011;8838;50.144;8.176;2023-01-30T08:11:29;8.53;;;5.40;;
17441;SDS011;8838;50.144;8.176;2023-01-30T08:13:56;8.17;;;5.30;;
17441;SDS011;8838;50.144;8.176;2023-01-30T08:16:22;8.17;;;5.43;;
17441;SDS011;8838;50.144;8.176;2023-01-30T08:18:49;8.53;;;5.20;;
17441;SDS011;8838;50.144;8.176;2023-01-30T08:21:16;7.50;;;4.70;;
17441;SDS011;8838;50.144;8.176;2023-01-30T08:23:43;7.60;;;5.10;;
17441;SDS011;8838;50.144;8.176;2023-01-30T08:26:09;7.00;;;4.70;;
17441;SDS011;8838;50.144;8.176;2023-01-30T08:28:38;5.40;;;4.27;;
17441;SDS011;8838;50.144;8.176;2023-01-30T08:31:07;5.17;;;3.83;;
17441;SDS011;8838;50.144;8.176;2023-01-30T08:33:35;6.20;;;4.43;;
17441;SDS011;8838;50.144;8.176;2023-01-30T08:36:02;7.93;;;4.73;;
17441;SDS011;8838;50.144;8.176;2023-01-30T08:38:29;6.53;;;4.20;;
17441;SDS011;8838;50.144;8.176;2023-01-30T08:40:56;6.37;;;4.13;;
17441;SDS011;8838;50.144;8.176;2023-01-30T08:43:25;7.00;;;4.40;;
17441;SDS011;8838;50.144;8.176;2023-01-30T08:45:53;5.93;;;3.87;;
17441;SDS011;8838;50.144;8.176;2023-01-30T08:48:20;6.40;;;4.00;;
17441;SDS011;8838;50.144;8.176;2023-01-30T08:50:49;4.57;;;3.67;;
17441;SDS011;8838;50.144;8.176;2023-01-30T08:53:17;5.20;;;3.80;;
17441;SDS011;8838;50.144;8.176;2023-01-30T08:55:43;5.47;;;3.73;;
17441;SDS011;8838;50.144;8.176;2023-01-30T08:58:10;5.27;;;3.87;;
17441;SDS011;8838;50.144;8.176;2023-01-30T09:00:37;4.73;;;3.27;;
17441;SDS011;8838;50.144;8.176;2023-01-30T09:03:09;4.93;;;3.60;;
17441;SDS011;8838;50.144;8.176;2023-01-30T09:05:38;4.37;;;3.40;;
17441;SDS011;8838;50.144;8.176;2023-01-30T09:08:05;5.60;;;4.00;;
17441;SDS011;8838;50.144;8.176;2023-01-30T09:10:31;4.87;;;3.90;;
17441;SDS011;8838;50.144;8.176;2023-01-30T09:12:58;4.27;;;3.40;;
17441;SDS011;8838;50.144;8.176;2023-01-30T09:15:25;4.40;;;3.40;;
17441;SDS011;8838;50.144;8.176;2023-01-30T09:17:52;4.53;;;3.60;;
17441;SDS011;8838;50.144;8.176;2023-01-30T09:20:20;4.30;;;3.20;;
17441;SDS011;8838;50.144;8.176;2023-01-30T09:22:47;4.73;;;3.10;;
17441;SDS011;8838;50.144;8.176;2023-01-30T09:25:14;11.73;;;7.23;;
17441;SDS011;8838;50.144;8.176;2023-01-30T09:27:41;3.97;;;3.20;;
17441;SDS011;8838;50.144;8.176;2023-01-30T09:30:10;3.80;;;2.90;;
17441;SDS011;8838;50.144;8.176;2023-01-30T09:32:37;3.70;;;2.87;;
17441;SDS011;8838;50.144;8.176;2023-01-30T09:35:04;3.17;;;2.60;;
17441;SDS011;8838;50.144;8.176;2023-01-30T09:37:33;3.23;;;2.80;;
17441;SDS011;8838;50.144;8.176;2023-01-30T09:40:00;3.20;;;2.60;;
17441;SDS011;8838;50.144;8.176;2023-01-30T09:45:31;5.13;;;2.70;;
17441;SDS011;8838;50.144;8.176;2023-01-30T09:48:13;3.13;;;2.53;;
17441;SDS011;8838;50.144;8.176;2023-01-30T09:50:45;2.83;;;2.20;;
17441;SDS011;8838;50.144;8.176;2023-01-30T09:53:24;3.10;;;2.60;;
17441;SDS011;8838;50.144;8.176;2023-01-30T09:55:58;17.23;;;11.07;;
17441;SDS011;8838;50.144;8.176;2023-01-30T09:58:30;4.07;;;2.50;;
17441;SDS011;8838;50.144;8.176;2023-01-30T10:01:07;3.67;;;2.53;;
17441;SDS011;8838;50.144;8.176;2023-01-30T10:03:41;3.17;;;2.20;;
17441;SDS011;8838;50.144;8.176;2023-01-30T10:06:20;3.00;;;2.20;;
17441;SDS011;8838;50.144;8.176;2023-01-30T10:08:51;2.90;;;2.40;;
17441;SDS011;8838;50.144;8.176;2023-01-30T10:11:27;2.63;;;2.30;;
17441;SDS011;8838;50.144;8.176;2023-01-30T10:14:16;2.60;;;1.93;;
17441;SDS011;8838;50.144;8.176;2023-01-30T10:17:02;2.33;;;2.03;;
17441;SDS011;8838;50.144;8.176;2023-01-30T10:19:46;3.23;;;2.10;;
17441;SDS011;8838;50.144;8.176;2023-01-30T10:22:29;2.87;;;2.17;;
17441;SDS011;8838;50.144;8.176;2023-01-30T10:25:12;2.17;;;1.97;;
17441;SDS011;8838;50.144;8.176;2023-01-30T10:27:49;3.40;;;2.20;;
17441;SDS011;8838;50.144;8.176;2023-01-30T10:30:19;2.10;;;1.70;;
17441;SDS011;8838;50.144;8.176;2023-01-30T10:32:47;2.10;;;1.77;;
17441;SDS011;8838;50.144;8.176;2023-01-30T10:35:19;2.60;;;2.20;;
17441;SDS011;8838;50.144;8.176;2023-01-30T10:37:50;2.20;;;2.00;;
17441;SDS011;8838;50.144;8.176;2023-01-30T10:40:26;3.17;;;2.23;;
17441;SDS011;8838;50.144;8.176;2023-01-30T10:42:58;3.83;;;1.93;;
17441;SDS011;8838;50.144;8.176;2023-01-30T10:45:31;3.27;;;2.30;;
17441;SDS011;8838;50.144;8.176;2023-01-30T10:48:09;4.13;;;2.20;;
17441;SDS011;8838;50.144;8.176;2023-01-30T10:50:49;17.87;;;11.03;;
17441;SDS011;8838;50.144;8.176;2023-01-30T10:53:21;2.20;;;1.80;;
17441;SDS011;8838;50.144;8.176;2023-01-30T10:55:56;2.63;;;2.00;;
17441;SDS011;8838;50.144;8.176;2023-01-30T10:58:30;2.57;;;2.00;;
17441;SDS011;8838;50.144;8.176;2023-01-30T11:01:04;2.77;;;1.90;;
17441;SDS011;8838;50.144;8.176;2023-01-30T11:03:39;2.80;;;2.20;;
17441;SDS011;8838;50.144;8.176;2023-01-30T11:06:13;2.80;;;2.00;;
17441;SDS011;8838;50.144;8.176;2023-01-30T11:08:42;2.83;;;2.10;;
17441;SDS011;8838;50.144;8.176;2023-01-30T11:11:21;3.23;;;2.10;;
17441;SDS011;8838;50.144;8.176;2023-01-30T11:14:03;4.20;;;2.00;;
17441;SDS011;8838;50.144;8.176;2023-01-30T11:16:32;2.30;;;2.10;;
17441;SDS011;8838;50.144;8.176;2023-01-30T11:19:07;2.90;;;2.40;;
17441;SDS011;8838;50.144;8.176;2023-01-30T11:21:35;2.97;;;2.17;;
17441;SDS011;8838;50.144;8.176;2023-01-30T11:24:03;2.60;;;1.90;;
17441;SDS011;8838;50.144;8.176;2023-01-30T11:26:38;3.37;;;2.20;;
17441;SDS011;8838;50.144;8.176;2023-01-30T11:29:15;2.47;;;2.10;;
17441;SDS011;8838;50.144;8.176;2023-01-30T11:31:50;3.10;;;1.67;;
17441;SDS011;8838;50.144;8.176;2023-01-30T11:34:19;3.70;;;1.97;;
17441;SDS011;8838;50.144;8.176;2023-01-30T11:36:47;3.83;;;2.17;;
17441;SDS011;8838;50.144;8.176;2023-01-30T11:39:18;5.17;;;2.17;;
17441;SDS011;8838;50.144;8.176;2023-01-30T11:41:57;3.93;;;2.00;;
17441;SDS011;8838;50.144;8.176;2023-01-30T11:44:29;5.53;;;2.10;;
17441;SDS011;8838;50.144;8.176;2023-01-30T11:46:58;5.00;;;2.40;;
17441;SDS011;8838;50.144;8.176;2023-01-30T11:49:27;4.03;;;1.90;;
17441;SDS011;8838;50.144;8.176;2023-01-30T11:51:58;4.80;;;2.07;;
17441;SDS011;8838;50.144;8.176;2023-01-30T11:54:27;5.03;;;2.53;;
17441;SDS011;8838;50.144;8.176;2023-01-30T11:57:00;3.33;;;2.17;;
17441;SDS011;8838;50.144;8.176;2023-01-30T11:59:31;3.33;;;1.80;;
17441;SDS011;8838;50.144;8.176;2023-01-30T12:02:02;4.63;;;2.07;;
17441;SDS011;8838;50.144;8.176;2023-01-30T12:04:30;3.63;;;2.00;;
17441;SDS011;8838;50.144;8.176;2023-01-30T12:07:04;5.63;;;1.70;;
17441;SDS011;8838;50.144;8.176;2023-01-30T12:09:40;5.73;;;1.67;;
17441;SDS011;8838;50.144;8.176;2023-01-30T12:15:02;2.83;;;1.93;;
17441;SDS011;8838;50.144;8.176;2023-01-30T12:17:38;5.57;;;2.17;;
17441;SDS011;8838;50.144;8.176;2023-01-30T12:20:11;3.67;;;1.73;;
17441;SDS011;8838;50.144;8.176;2023-01-30T12:22:44;6.13;;;1.77;;
17441;SDS011;8838;50.144;8.176;2023-01-30T12:25:18;4.87;;;2.07;;
17441;SDS011;8838;50.144;8.176;2023-01-30T12:27:56;4.00;;;2.03;;
17441;SDS011;8838;50.144;8.176;2023-01-30T12:30:28;5.10;;;1.83;;
17441;SDS011;8838;50.144;8.176;2023-01-30T12:33:00;4.67;;;1.90;;
17441;SDS011;8838;50.144;8.176;2023-01-30T12:35:33;6.57;;;1.90;;
17441;SDS011;8838;50.144;8.176;2023-01-30T12:38:13;7.33;;;2.00;;
17441;SDS011;8838;50.144;8.176;2023-01-30T12:40:50;6.07;;;2.00;;
17441;SDS011;8838;50.144;8.176;2023-01-30T12:43:33;6.60;;;1.90;;
17441;SDS011;8838;50.144;8.176;2023-01-30T12:46:27;4.53;;;2.10;;
17441;SDS011;8838;50.144;8.176;2023-01-30T12:49:07;4.50;;;2.10;;
17441;SDS011;8838;50.144;8.176;2023-01-30T12:51:55;6.03;;;1.80;;
17441;SDS011;8838;50.144;8.176;2023-01-30T12:54:35;2.90;;;2.00;;
17441;SDS011;8838;50.144;8.176;2023-01-30T12:57:15;4.70;;;2.10;;
17441;SDS011;8838;50.144;8.176;2023-01-30T12:59:53;5.63;;;2.10;;
17441;SDS011;8838;50.144;8.176;2023-01-30T13:02:39;8.03;;;2.37;;
17441;SDS011;8838;50.144;8.176;2023-01-30T13:05:19;4.20;;;2.40;;
17441;SDS011;8838;50.144;8.176;2023-01-30T13:07:55;6.77;;;2.50;;
17441;SDS011;8838;50.144;8.176;2023-01-30T13:10:33;4.10;;;2.60;;
17441;SDS011;8838;50.144;8.176;2023-01-30T13:13:08;3.37;;;2.00;;
17441;SDS011;8838;50.144;8.176;2023-01-30T13:15:41;4.43;;;2.20;;
17441;SDS011;8838;50.144;8.176;2023-01-30T13:18:17;6.80;;;2.53;;
17441;SDS011;8838;50.144;8.176;2023-01-30T13:20:51;7.33;;;1.97;;
17441;SDS011;8838;50.144;8.176;2023-01-30T13:23:24;7.07;;;2.77;;
17441;SDS011;8838;50.144;8.176;2023-01-30T13:25:59;5.83;;;2.27;;
17441;SDS011;8838;50.144;8.176;2023-01-30T13:28:31;5.57;;;2.20;;
17441;SDS011;8838;50.144;8.176;2023-01-30T13:31:04;5.13;;;2.40;;
17441;SDS011;8838;50.144;8.176;2023-01-30T13:33:36;4.50;;;2.07;;
17441;SDS011;8838;50.144;8.176;2023-01-30T13:36:09;6.97;;;2.73;;
17441;SDS011;8838;50.144;8.176;2023-01-30T13:38:40;5.43;;;2.10;;
17441;SDS011;8838;50.144;8.176;2023-01-30T13:41:17;6.47;;;2.27;;
17441;SDS011;8838;50.144;8.176;2023-01-30T13:43:45;8.60;;;2.40;;
17441;SDS011;8838;50.144;8.176;2023-01-30T13:46:18;5.13;;;2.20;;
17441;SDS011;8838;50.144;8.176;2023-01-30T13:48:53;8.57;;;2.10;;
17441;SDS011;8838;50.144;8.176;2023-01-30T13:51:38;10.57;;;3.30;;
17441;SDS011;8838;50.144;8.176;2023-01-30T13:54:24;9.07;;;2.00;;
17441;SDS011;8838;50.144;8.176;2023-01-30T13:56:59;6.43;;;2.13;;
17441;SDS011;8838;50.144;8.176;2023-01-30T13:59:44;7.10;;;2.17;;
17441;SDS011;8838;50.144;8.176;2023-01-30T14:02:51;7.03;;;2.17;;
17441;SDS011;8838;50.144;8.176;2023-01-30T14:06:08;12.27;;;2.80;;
17441;SDS011;8838;50.144;8.176;2023-01-30T14:08:52;8.80;;;2.60;;
17441;SDS011;8838;50.144;8.176;2023-01-30T14:14:25;11.77;;;2.57;;
17441;SDS011;8838;50.144;8.176;2023-01-30T14:16:55;11.13;;;3.03;;
17441;SDS011;8838;50.144;8.176;2023-01-30T14:19:37;5.67;;;2.47;;
17441;SDS011;8838;50.144;8.176;2023-01-30T14:22:18;9.17;;;2.67;;
17441;SDS011;8838;50.144;8.176;2023-01-30T14:37:13;8.87;;;2.30;;
17441;SDS011;8838;50.144;8.176;2023-01-30T14:40:29;11.17;;;2.67;;
17441;SDS011;8838;50.144;8.176;2023-01-30T14:49:28;13.67;;;2.73;;
17441;SDS011;8838;50.144;8.176;2023-01-30T14:51:57;15.73;;;2.73;;
17441;SDS011;8838;50.144;8.176;2023-01-30T14:54:27;13.80;;;3.10;;
17441;SDS011;8838;50.144;8.176;2023-01-30T14:56:59;18.10;;;3.27;;
17441;SDS011;8838;50.144;8.176;2023-01-30T14:59:28;11.80;;;3.33;;
17441;SDS011;8838;50.144;8.176;2023-01-30T15:02:00;15.40;;;2.73;;
17441;SDS011;8838;50.144;8.176;2023-01-30T15:04:31;15.27;;;3.33;;
17441;SDS011;8838;50.144;8.176;2023-01-30T15:07:07;19.87;;;3.33;;
17441;SDS011;8838;50.144;8.176;2023-01-30T15:09:37;16.03;;;3.10;;
17441;SDS011;8838;50.144;8.176;2023-01-30T15:12:19;12.30;;;2.73;;
17441;SDS011;8838;50.144;8.176;2023-01-30T15:15:03;17.53;;;3.10;;
17441;SDS011;8838;50.144;8.176;2023-01-30T15:17:40;17.87;;;3.10;;
17441;SDS011;8838;50.144;8.176;2023-01-30T15:20:20;13.40;;;2.70;;
17441;SDS011;8838;50.144;8.176;2023-01-30T15:23:08;19.60;;;4.30;;
17441;SDS011;8838;50.144;8.176;2023-01-30T15:25:46;20.17;;;3.50;;
17441;SDS011;8838;50.144;8.176;2023-01-30T15:28:31;18.17;;;3.67;;
17441;SDS011;8838;50.144;8.176;2023-01-30T15:31:10;11.70;;;2.50;;
17441;SDS011;8838;50.144;8.176;2023-01-30T15:33:42;21.57;;;2.87;;
17441;SDS011;8838;50.144;8.176;2023-01-30T15:36:17;16.73;;;3.80;;
17441;SDS011;8838;50.144;8.176;2023-01-30T15:38:45;17.50;;;3.20;;
17441;SDS011;8838;50.144;8.176;2023-01-30T15:41:22;19.77;;;5.37;;